KFYE

Details ICAO KFYE
Name FAYETTE COUNTY
Region United States
Timezone America/Chicago (UTC-5.0)
Plans Departing 2
Arriving 1
Stats Elevation 436 ft / 133 m (AMSL)
Location 35.207706° -89.394458°
Runways 1
Magnetic Variation 1.826° W
Sunrise 2018-05-25 10:48:38 UTC / 2018-05-25 05:48:38 Local
Sunset 2018-05-26 01:03:19 UTC / 2018-05-25 20:03:19 Local
Advertisement - Login to hide

Runways

ID Width Length Bearing (true) Bearing (mag) Surface Threshold Offset Overrun Length
01 75 ft / 23 m 5,013 ft / 1,528 m 7.77° 9.60° Asphalt 0 ft / 0 m 0 ft / 0 m
19 75 ft / 23 m 5,013 ft / 1,528 m 187.77° 189.60° Asphalt 0 ft / 0 m 0 ft / 0 m

Map

Weather


0- 5 10 15 20 25 30 35+ Temperature / ° C

Clouds and Precipitation
Forecast for 2018-05-25 12:00 UTC. Updated 16 minutes ago

Ground ~20,000 ft ~40,000 ft Winds

METAR

KFYE 250935Z AUTO 00000KT 7SM BKN050 OVC060 21/21 A2999 RMK A01

TAF

Not found

Frequencies

Recorded 119.87 MHz AWOS 3
Approach 125.80 MHz MEMPHIS APP
Unicom 122.90 MHz CTAF
Departure 124.15 MHz MEMPHIS DEP
Warning: Do not use this data for real-world aviation or navigation. No guarantee of current accuracy is given.